createdAt,value
2022-09-10T00:00:05.114Z,18.21
2022-09-10T00:02:44.532Z,18.20
2022-09-10T00:05:21.440Z,18.19
2022-09-10T00:07:59.887Z,18.19
2022-09-10T00:10:34.402Z,18.19
2022-09-10T00:13:04.505Z,18.23
2022-09-10T00:15:43.351Z,18.23
2022-09-10T00:18:22.332Z,18.21
2022-09-10T00:20:57.254Z,18.36
2022-09-10T00:23:37.331Z,18.30
2022-09-10T00:26:26.817Z,18.22
2022-09-10T00:29:02.474Z,18.18
2022-09-10T00:31:37.685Z,18.12
2022-09-10T00:34:14.450Z,18.13
2022-09-10T00:36:52.604Z,18.16
2022-09-10T00:39:26.804Z,18.18
2022-09-10T00:41:58.394Z,18.22
2022-09-10T00:44:42.556Z,18.18
2022-09-10T00:47:23.624Z,18.16
2022-09-10T00:50:20.036Z,18.15
2022-09-10T00:52:58.896Z,18.17
2022-09-10T00:55:46.618Z,18.38
2022-09-10T00:58:20.645Z,18.37
2022-09-10T01:00:55.112Z,18.22
2022-09-10T01:03:30.291Z,18.17
2022-09-10T01:06:05.540Z,18.13
2022-09-10T01:08:49.574Z,18.10
2022-09-10T01:11:42.601Z,18.06
2022-09-10T01:14:37.268Z,18.06
2022-09-10T01:17:34.536Z,18.03
2022-09-10T01:20:12.888Z,18.04
2022-09-10T01:23:20.492Z,18.02
2022-09-10T01:26:20.194Z,18.00
2022-09-10T01:29:28.556Z,18.00
2022-09-10T01:32:20.927Z,17.98
2022-09-10T01:35:21.534Z,17.92
2022-09-10T01:37:57.393Z,17.87
2022-09-10T01:40:36.543Z,17.90
2022-09-10T01:43:16.222Z,17.84
2022-09-10T01:46:32.873Z,18.06
2022-09-10T01:49:28.871Z,17.92
2022-09-10T01:52:51.745Z,17.90
2022-09-10T01:55:47.350Z,17.96
2022-09-10T01:58:41.738Z,17.93
2022-09-10T02:02:04.532Z,17.90
2022-09-10T02:04:37.705Z,17.92
2022-09-10T02:07:15.992Z,17.96
2022-09-10T02:09:55.048Z,17.98
2022-09-10T02:12:32.812Z,18.03
2022-09-10T02:15:33.569Z,18.00
2022-09-10T02:18:29.903Z,17.98
2022-09-10T02:21:03.358Z,17.94
2022-09-10T02:24:12.972Z,17.88
2022-09-10T02:26:51.282Z,17.91
2022-09-10T02:29:29.093Z,17.94
2022-09-10T02:32:08.495Z,18.02
2022-09-10T02:34:53.553Z,17.99
2022-09-10T02:37:35.694Z,17.95
2022-09-10T02:40:11.826Z,17.94
2022-09-10T02:42:48.497Z,17.93
2022-09-10T02:45:27.436Z,17.95
2022-09-10T02:48:04.343Z,17.90
2022-09-10T02:50:41.936Z,17.89
2022-09-10T02:53:21.942Z,17.85
2022-09-10T02:56:11.057Z,17.96
2022-09-10T02:58:46.388Z,17.90
2022-09-10T03:01:20.656Z,17.79
2022-09-10T03:04:10.663Z,17.73
2022-09-10T03:06:48.140Z,17.70
2022-09-10T03:09:22.323Z,17.60
2022-09-10T03:12:00.705Z,17.43
2022-09-10T03:14:38.259Z,17.29
2022-09-10T03:17:20.728Z,17.36
2022-09-10T03:19:56.278Z,17.25
2022-09-10T03:22:32.260Z,17.14
2022-09-10T03:25:12.253Z,17.04
2022-09-10T03:27:50.429Z,17.03
2022-09-10T03:30:28.167Z,16.93
2022-09-10T03:32:59.957Z,16.86
2022-09-10T03:35:37.708Z,16.76
2022-09-10T03:38:14.099Z,16.61
2022-09-10T03:40:55.352Z,16.65
2022-09-10T03:43:33.320Z,16.60
2022-09-10T03:46:12.481Z,16.51
2022-09-10T03:48:55.196Z,16.42
2022-09-10T03:51:27.664Z,16.37
2022-09-10T03:54:14.150Z,16.42
2022-09-10T03:56:48.820Z,16.46
2022-09-10T03:59:32.368Z,16.33
2022-09-10T04:02:12.559Z,16.41
2022-09-10T04:04:45.534Z,16.46
2022-09-10T04:07:21.412Z,16.45
2022-09-10T04:10:01.214Z,16.41
2022-09-10T04:12:37.518Z,16.31
2022-09-10T04:15:13.520Z,16.22
2022-09-10T04:17:46.850Z,16.22
2022-09-10T04:20:21.598Z,16.19
2022-09-10T04:22:57.886Z,16.23
2022-09-10T04:25:35.509Z,16.25
2022-09-10T04:28:11.761Z,16.24
2022-09-10T04:30:48.202Z,16.31
2022-09-10T04:33:23.160Z,16.14
2022-09-10T04:36:03.660Z,16.09
2022-09-10T04:38:45.394Z,16.02
2022-09-10T04:41:25.952Z,15.93
2022-09-10T04:44:02.683Z,15.93
2022-09-10T04:46:36.473Z,15.98
2022-09-10T04:49:24.495Z,15.96
2022-09-10T04:51:56.235Z,15.99
2022-09-10T04:54:35.011Z,16.04
2022-09-10T04:57:10.417Z,16.16
2022-09-10T04:59:46.061Z,16.16
2022-09-10T05:02:17.227Z,16.24
2022-09-10T05:04:51.595Z,16.17
2022-09-10T05:07:27.557Z,16.08
2022-09-10T05:10:03.189Z,16.19
2022-09-10T05:12:40.510Z,16.10
2022-09-10T05:15:14.076Z,16.17
2022-09-10T05:17:49.950Z,16.16
2022-09-10T05:20:22.584Z,16.07
2022-09-10T05:23:00.085Z,16.08
2022-09-10T05:25:39.317Z,16.24
2022-09-10T05:28:18.602Z,16.26
2022-09-10T05:30:55.633Z,16.24
2022-09-10T05:33:31.440Z,16.32
2022-09-10T05:36:07.323Z,16.44
2022-09-10T05:38:47.297Z,16.40
2022-09-10T05:41:22.289Z,16.54
2022-09-10T05:43:58.457Z,16.71
2022-09-10T05:46:37.848Z,16.77
2022-09-10T05:49:23.858Z,16.83
2022-09-10T05:51:58.970Z,16.93
2022-09-10T05:54:32.112Z,17.06
2022-09-10T05:57:07.859Z,17.05
2022-09-10T05:59:46.301Z,17.13
2022-09-10T06:02:25.570Z,17.19
2022-09-10T06:05:03.932Z,17.20
2022-09-10T06:07:40.513Z,17.20
2022-09-10T06:10:20.040Z,17.26
2022-09-10T06:12:57.174Z,17.25
2022-09-10T06:15:37.108Z,17.39
2022-09-10T06:18:12.508Z,17.38
2022-09-10T06:20:42.471Z,17.51
2022-09-10T06:23:18.411Z,17.51
2022-09-10T06:26:10.397Z,17.51
2022-09-10T06:28:47.413Z,17.48
2022-09-10T06:31:27.344Z,17.58
2022-09-10T06:34:02.689Z,17.49
2022-09-10T06:36:45.192Z,17.51
2022-09-10T06:39:23.575Z,17.63
2022-09-10T06:42:07.356Z,17.65
2022-09-10T06:45:00.333Z,17.84
2022-09-10T06:51:03.497Z,18.15
2022-09-10T06:53:51.019Z,18.23
2022-09-10T06:56:23.753Z,18.19
2022-09-10T06:59:02.398Z,18.12
2022-09-10T07:01:41.887Z,18.22
2022-09-10T07:04:18.579Z,18.24
2022-09-10T07:06:54.011Z,18.09
2022-09-10T07:09:46.149Z,18.22
2022-09-10T07:12:24.798Z,18.19
2022-09-10T07:15:02.175Z,18.15
2022-09-10T07:17:43.302Z,18.17
2022-09-10T07:20:18.505Z,18.13
2022-09-10T07:23:03.388Z,18.19
2022-09-10T07:25:39.450Z,18.72
2022-09-10T07:28:26.658Z,18.92
2022-09-10T07:31:22.256Z,19.09
2022-09-10T07:33:59.716Z,18.92
2022-09-10T07:36:32.004Z,18.77
2022-09-10T07:39:04.733Z,18.71
2022-09-10T07:41:52.166Z,18.74
2022-09-10T07:44:31.405Z,18.68
2022-09-10T07:47:10.014Z,18.76
2022-09-10T07:49:44.865Z,18.82
2022-09-10T07:52:24.538Z,18.83
2022-09-10T07:55:03.906Z,18.89
2022-09-10T07:57:41.556Z,18.90
2022-09-10T08:00:26.673Z,18.86
2022-09-10T08:03:06.317Z,18.90
2022-09-10T08:05:44.142Z,18.75
2022-09-10T08:08:24.429Z,18.74
2022-09-10T08:10:54.606Z,18.60
2022-09-10T08:13:37.972Z,18.65
2022-09-10T08:16:32.413Z,18.77
2022-09-10T08:19:11.017Z,18.77
2022-09-10T08:21:53.481Z,18.85
2022-09-10T08:24:40.690Z,19.05
2022-09-10T08:27:25.753Z,19.54
2022-09-10T08:30:04.322Z,19.59
2022-09-10T08:32:36.527Z,19.69
2022-09-10T08:35:16.798Z,19.68
2022-09-10T08:37:49.326Z,19.65
2022-09-10T08:40:23.860Z,19.65
2022-09-10T08:43:01.793Z,19.79
2022-09-10T08:45:55.837Z,19.96
2022-09-10T08:48:32.796Z,20.01
2022-09-10T08:51:21.452Z,20.28
2022-09-10T08:53:59.871Z,20.36
2022-09-10T08:56:28.172Z,20.55
2022-09-10T08:59:11.382Z,20.64
2022-09-10T09:01:54.612Z,20.63
2022-09-10T09:04:54.199Z,20.58
2022-09-10T09:07:50.596Z,20.53
2022-09-10T09:10:33.018Z,20.50
2022-09-10T09:13:34.038Z,20.52
2022-09-10T09:16:16.105Z,20.54
2022-09-10T09:19:14.843Z,20.53
2022-09-10T09:21:54.895Z,20.55
2022-09-10T09:25:19.521Z,21.06
2022-09-10T09:27:57.683Z,21.13
2022-09-10T09:30:49.830Z,21.25
2022-09-10T09:33:30.283Z,20.92
2022-09-10T09:36:18.547Z,21.06
2022-09-10T09:38:59.852Z,21.01
2022-09-10T09:41:47.106Z,21.12
2022-09-10T09:44:29.452Z,21.22
2022-09-10T09:47:04.888Z,21.21
2022-09-10T09:49:43.050Z,21.08
2022-09-10T09:52:32.812Z,20.91
2022-09-10T09:55:15.940Z,20.97
2022-09-10T09:58:21.035Z,21.14
2022-09-10T10:01:07.043Z,21.58
2022-09-10T10:03:59.679Z,21.82
2022-09-10T10:06:34.809Z,22.07
2022-09-10T10:09:21.422Z,22.07
2022-09-10T10:12:04.085Z,22.04
2022-09-10T10:14:48.291Z,22.14
2022-09-10T10:17:57.568Z,22.15
2022-09-10T10:20:44.105Z,22.24
2022-09-10T10:23:38.728Z,22.31
2022-09-10T10:26:35.540Z,22.39
2022-09-10T10:29:24.647Z,22.41
2022-09-10T10:32:05.479Z,22.56
2022-09-10T10:35:19.092Z,23.02
2022-09-10T10:38:10.541Z,23.42
2022-09-10T10:41:15.161Z,23.32
2022-09-10T10:44:04.123Z,23.38
2022-09-10T10:47:16.012Z,23.38
2022-09-10T10:50:09.127Z,23.73
2022-09-10T10:53:17.549Z,23.57
2022-09-10T10:56:04.254Z,23.39
2022-09-10T10:58:56.076Z,23.48
2022-09-10T11:01:33.480Z,23.40
2022-09-10T11:04:32.865Z,23.61
2022-09-10T11:07:20.102Z,23.81
2022-09-10T11:10:27.081Z,24.04
2022-09-10T11:13:31.695Z,24.04
2022-09-10T11:16:27.347Z,24.03
2022-09-10T11:19:25.672Z,24.20
2022-09-10T11:22:16.885Z,24.01
2022-09-10T11:25:16.008Z,23.90
2022-09-10T11:28:07.083Z,23.76
2022-09-10T11:30:46.619Z,23.88
2022-09-10T11:33:49.841Z,24.09
2022-09-10T11:36:44.472Z,24.18
2022-09-10T11:39:35.574Z,24.32
2022-09-10T11:42:23.038Z,24.36
2022-09-10T11:45:14.586Z,24.35
2022-09-10T11:48:07.305Z,24.44
2022-09-10T11:50:56.196Z,24.49
2022-09-10T11:53:44.476Z,24.35
2022-09-10T11:56:26.509Z,24.46
2022-09-10T11:59:05.179Z,24.76
2022-09-10T12:02:02.690Z,24.69
2022-09-10T12:05:35.731Z,24.45
2022-09-10T12:11:51.559Z,24.75
2022-09-10T12:14:31.490Z,24.76
2022-09-10T12:17:30.337Z,24.68
2022-09-10T12:20:06.296Z,24.83
2022-09-10T12:22:40.655Z,24.97
2022-09-10T12:25:37.291Z,25.06
2022-09-10T12:28:46.398Z,25.02
2022-09-10T12:31:25.002Z,25.00
2022-09-10T12:34:24.236Z,24.92
2022-09-10T12:37:17.279Z,25.23
2022-09-10T12:40:27.434Z,25.02
2022-09-10T12:43:26.829Z,25.15
2022-09-10T12:46:31.291Z,24.99
2022-09-10T12:49:14.189Z,25.08
2022-09-10T12:51:58.694Z,25.24
2022-09-10T12:54:50.769Z,25.17
2022-09-10T12:57:43.263Z,25.40
2022-09-10T13:00:48.938Z,25.27
2022-09-10T13:03:22.642Z,25.38
2022-09-10T13:06:00.885Z,25.33
2022-09-10T13:08:48.439Z,25.55
2022-09-10T13:11:25.188Z,25.77
2022-09-10T13:14:08.581Z,25.68
2022-09-10T13:16:44.956Z,25.20
2022-09-10T13:19:31.852Z,25.28
2022-09-10T13:22:36.267Z,25.48
2022-09-10T13:25:31.585Z,25.49
2022-09-10T13:28:27.481Z,25.39
2022-09-10T13:31:06.438Z,25.66
2022-09-10T13:34:05.756Z,25.49
2022-09-10T13:37:03.673Z,25.42
2022-09-10T13:39:48.354Z,25.70
2022-09-10T13:42:35.576Z,25.72
2022-09-10T13:45:23.687Z,25.75
2022-09-10T13:48:15.124Z,25.87
2022-09-10T13:51:09.946Z,25.90
2022-09-10T13:53:50.491Z,25.49
2022-09-10T13:56:28.422Z,25.48
2022-09-10T13:59:07.331Z,25.79
2022-09-10T14:01:56.790Z,26.11
2022-09-10T14:04:32.533Z,25.95
2022-09-10T14:07:22.349Z,25.62
2022-09-10T14:09:58.816Z,25.58
2022-09-10T14:12:33.480Z,25.41
2022-09-10T14:15:09.180Z,25.12
2022-09-10T14:17:56.889Z,25.07
2022-09-10T14:20:30.721Z,25.34
2022-09-10T14:23:07.166Z,25.21
2022-09-10T14:25:46.924Z,25.22
2022-09-10T14:28:16.823Z,25.37
2022-09-10T14:31:18.813Z,25.29
2022-09-10T14:33:54.218Z,25.57
2022-09-10T14:36:44.906Z,25.61
2022-09-10T14:39:22.837Z,25.49
2022-09-10T14:42:27.411Z,25.68
2022-09-10T14:45:10.636Z,25.51
2022-09-10T14:47:52.201Z,25.46
2022-09-10T14:50:34.788Z,25.57
2022-09-10T14:53:10.261Z,25.45
2022-09-10T14:55:55.639Z,25.44
2022-09-10T14:58:33.710Z,25.47
2022-09-10T15:01:06.912Z,25.56
2022-09-10T15:03:38.395Z,25.25
2022-09-10T15:06:10.795Z,25.66
2022-09-10T15:08:47.817Z,25.80
2022-09-10T15:11:27.950Z,25.45
2022-09-10T15:14:02.829Z,25.36
2022-09-10T15:16:44.045Z,25.32
2022-09-10T15:19:19.975Z,25.43
2022-09-10T15:21:56.466Z,25.60
2022-09-10T15:24:52.503Z,25.54
2022-09-10T15:27:38.462Z,25.54
2022-09-10T15:30:15.245Z,25.46
2022-09-10T15:32:42.252Z,25.37
2022-09-10T15:35:16.156Z,26.03
2022-09-10T15:37:54.002Z,26.61
2022-09-10T15:40:29.371Z,26.65
2022-09-10T15:43:08.517Z,27.05
2022-09-10T15:45:41.296Z,25.77
2022-09-10T15:48:16.587Z,25.07
2022-09-10T15:51:00.516Z,24.23
2022-09-10T15:53:36.052Z,24.12
2022-09-10T15:56:15.795Z,25.68
2022-09-10T15:58:59.475Z,26.86
2022-09-10T16:01:32.740Z,27.52
2022-09-10T16:04:17.345Z,28.05
2022-09-10T16:06:55.836Z,27.72
2022-09-10T16:09:28.413Z,27.97
2022-09-10T16:12:03.906Z,28.46
2022-09-10T16:14:42.550Z,27.83
2022-09-10T16:17:23.366Z,27.40
2022-09-10T16:19:56.695Z,26.42
2022-09-10T16:22:39.283Z,25.44
2022-09-10T16:25:17.504Z,24.79
2022-09-10T16:27:52.671Z,24.60
2022-09-10T16:30:31.798Z,25.16
2022-09-10T16:33:09.914Z,24.64
2022-09-10T16:35:50.105Z,24.21
2022-09-10T16:38:30.474Z,23.42
2022-09-10T16:41:09.757Z,23.05
2022-09-10T16:43:45.683Z,22.63
2022-09-10T16:46:24.625Z,22.41
2022-09-10T16:48:59.321Z,22.19
2022-09-10T16:51:34.684Z,21.95
2022-09-10T16:54:40.357Z,21.68
2022-09-10T16:57:12.868Z,21.46
2022-09-10T16:59:55.021Z,21.27
2022-09-10T17:02:35.350Z,21.13
2022-09-10T17:05:11.317Z,20.98
2022-09-10T17:07:54.602Z,20.86
2022-09-10T17:10:30.620Z,20.74
2022-09-10T17:13:12.801Z,20.66
2022-09-10T17:16:23.219Z,20.45
2022-09-10T17:19:12.151Z,20.38
2022-09-10T17:21:44.609Z,20.41
2022-09-10T17:24:28.476Z,20.33
2022-09-10T17:27:06.817Z,20.20
2022-09-10T17:29:41.978Z,20.10
2022-09-10T17:32:08.970Z,20.10
2022-09-10T17:34:50.116Z,19.94
2022-09-10T17:37:32.468Z,19.92
2022-09-10T17:40:20.228Z,19.81
2022-09-10T17:42:56.538Z,19.77
2022-09-10T17:45:32.210Z,19.69
2022-09-10T17:48:07.333Z,19.62
2022-09-10T17:50:46.330Z,19.50
2022-09-10T17:53:27.520Z,19.43
2022-09-10T17:56:05.676Z,19.34
2022-09-10T17:58:43.052Z,19.29
2022-09-10T18:01:32.263Z,19.12
2022-09-10T18:04:09.663Z,19.05
2022-09-10T18:06:58.259Z,18.97
2022-09-10T18:09:30.739Z,18.85
2022-09-10T18:12:10.550Z,18.77
2022-09-10T18:14:47.356Z,18.67
2022-09-10T18:17:38.919Z,18.59
2022-09-10T18:20:11.602Z,18.54
2022-09-10T18:22:57.797Z,18.33
2022-09-10T18:25:38.743Z,18.30
2022-09-10T18:28:14.284Z,18.23
2022-09-10T18:30:49.820Z,18.16
2022-09-10T18:33:31.211Z,18.12
2022-09-10T18:36:15.405Z,18.02
2022-09-10T18:38:53.332Z,18.06
2022-09-10T18:41:32.115Z,18.14
2022-09-10T18:44:18.171Z,18.14
2022-09-10T18:47:01.457Z,18.04
2022-09-10T18:49:34.408Z,17.96
2022-09-10T18:52:13.537Z,17.84
2022-09-10T18:54:46.570Z,17.89
2022-09-10T18:57:22.162Z,17.83
2022-09-10T19:00:02.553Z,17.81
2022-09-10T19:02:38.913Z,17.79
2022-09-10T19:05:14.430Z,17.73
2022-09-10T19:07:51.075Z,17.85
2022-09-10T19:10:29.915Z,17.72
2022-09-10T19:13:15.738Z,17.67
2022-09-10T19:18:43.873Z,17.60
2022-09-10T19:21:26.269Z,17.61
2022-09-10T19:24:10.340Z,17.47
2022-09-10T19:26:47.729Z,17.43
2022-09-10T19:29:32.740Z,17.33
2022-09-10T19:32:07.668Z,17.21
2022-09-10T19:34:48.319Z,17.08
2022-09-10T19:37:27.247Z,16.98
2022-09-10T19:40:12.045Z,16.85
2022-09-10T19:42:47.871Z,16.79
2022-09-10T19:45:26.127Z,16.70
2022-09-10T19:48:06.319Z,16.67
2022-09-10T19:50:43.816Z,16.70
2022-09-10T19:53:24.107Z,16.67
2022-09-10T19:56:08.734Z,16.51
2022-09-10T19:58:42.647Z,16.43
2022-09-10T20:01:25.289Z,16.46
2022-09-10T20:04:08.473Z,16.39
2022-09-10T20:06:54.460Z,16.34
2022-09-10T20:09:45.114Z,16.35
2022-09-10T20:12:36.561Z,16.36
2022-09-10T20:15:09.471Z,16.24
2022-09-10T20:17:42.737Z,16.15
2022-09-10T20:20:21.876Z,16.14
2022-09-10T20:23:05.277Z,16.24
2022-09-10T20:25:48.936Z,16.23
2022-09-10T20:28:19.376Z,16.26
2022-09-10T20:31:03.542Z,16.17
2022-09-10T20:33:42.440Z,16.24
2022-09-10T20:36:25.365Z,16.15
2022-09-10T20:39:01.264Z,16.09
2022-09-10T20:41:34.509Z,16.28
2022-09-10T20:44:10.363Z,16.25
2022-09-10T20:46:51.856Z,16.20
2022-09-10T20:49:27.606Z,16.20
2022-09-10T20:52:07.096Z,16.30
2022-09-10T20:54:46.730Z,16.39
2022-09-10T20:57:22.948Z,16.34
2022-09-10T21:00:01.266Z,16.39
2022-09-10T21:02:35.651Z,16.47
2022-09-10T21:05:14.386Z,16.40
2022-09-10T21:07:47.357Z,16.35
2022-09-10T21:10:27.885Z,16.28
2022-09-10T21:13:11.724Z,16.33
2022-09-10T21:15:47.580Z,16.19
2022-09-10T21:18:22.714Z,16.08
2022-09-10T21:21:08.567Z,16.01
2022-09-10T21:23:51.313Z,15.99
2022-09-10T21:26:39.517Z,15.90
2022-09-10T21:29:19.983Z,15.76
2022-09-10T21:32:04.504Z,15.66
2022-09-10T21:34:43.367Z,15.66
2022-09-10T21:37:21.424Z,15.59
2022-09-10T21:39:57.021Z,15.48
2022-09-10T21:42:38.120Z,15.43
2022-09-10T21:45:08.381Z,15.55
2022-09-10T21:47:41.609Z,15.49
2022-09-10T21:50:11.668Z,15.45
2022-09-10T21:52:48.502Z,15.44
2022-09-10T21:55:26.536Z,15.38
2022-09-10T21:58:12.012Z,15.39
2022-09-10T22:00:52.004Z,15.32
2022-09-10T22:03:30.984Z,15.26
2022-09-10T22:06:17.580Z,15.16
2022-09-10T22:08:50.731Z,15.03
2022-09-10T22:11:34.746Z,15.02
2022-09-10T22:14:07.318Z,14.97
2022-09-10T22:16:48.553Z,15.02
2022-09-10T22:19:28.091Z,15.07
2022-09-10T22:22:11.353Z,15.06
2022-09-10T22:24:49.652Z,15.22
2022-09-10T22:30:18.624Z,15.39
2022-09-10T22:32:57.089Z,15.40
2022-09-10T22:35:33.050Z,15.37
2022-09-10T22:38:16.833Z,15.48
2022-09-10T22:40:54.065Z,15.55
2022-09-10T22:43:31.683Z,15.60
2022-09-10T22:46:07.178Z,15.61
2022-09-10T22:48:46.805Z,15.56
2022-09-10T22:51:34.306Z,15.60
2022-09-10T22:54:07.849Z,15.65
2022-09-10T22:56:40.684Z,15.62
2022-09-10T22:59:30.619Z,15.69
2022-09-10T23:02:07.628Z,15.73
2022-09-10T23:04:42.754Z,15.74
2022-09-10T23:07:16.734Z,15.82
2022-09-10T23:09:57.299Z,15.80
2022-09-10T23:12:27.596Z,15.78
2022-09-10T23:15:05.470Z,15.79
2022-09-10T23:17:41.531Z,15.80
2022-09-10T23:20:14.295Z,15.75
2022-09-10T23:22:51.374Z,15.79
2022-09-10T23:25:23.851Z,15.69
2022-09-10T23:27:59.184Z,15.66
2022-09-10T23:30:37.717Z,15.57
2022-09-10T23:33:13.685Z,15.54
2022-09-10T23:35:56.723Z,15.43
2022-09-10T23:38:37.109Z,15.50
2022-09-10T23:41:13.413Z,15.41
2022-09-10T23:43:51.630Z,15.29
2022-09-10T23:46:33.729Z,15.39
2022-09-10T23:49:11.942Z,15.23
2022-09-10T23:51:48.718Z,15.18
2022-09-10T23:54:23.646Z,15.13
2022-09-10T23:57:04.831Z,15.04
2022-09-10T23:59:43.276Z,14.93
